Time;durP1;ratioP1;P1;durP2;ratioP2;P2;SDS_P1;SDS_P2;PMS_P1;PMS_P2;Temp;Humidity;BMP_temperature;BMP_pressure;BME280_temperature;BME280_humidity;BME280_pressure;Samples;Min_cycle;Max_cycle;Signal;HPM_P1;HPM_P2
2022/05/10 00:02:09;;;;;;;;;;;;;;;6.74;56.40;99866.78;4789731;29;19978;-76
2022/05/10 00:04:35;;;;;;;;;;;;;;;6.79;55.97;99867.72;4798839;29;19921;-76
2022/05/10 00:07:00;;;;;;;;;;;;;;;6.89;55.95;99856.69;4794118;29;20454;-75
2022/05/10 00:09:29;;;;;;;;;;;;;;;6.85;56.03;99850.59;4791951;29;20519;-76
2022/05/10 00:11:55;;;;;;;;;;;;;;;6.68;56.25;99856.38;4798751;29;19925;-76
2022/05/10 00:14:21;;;;;;;;;;;;;;;6.81;57.18;99850.53;4798591;29;20020;-75
2022/05/10 00:16:51;;;;;;;;;;;;;;;6.68;55.24;99856.38;4792126;29;20057;-76
2022/05/10 00:19:16;;;;;;;;;;;;;;;6.73;55.43;99850.41;4792482;29;19917;-76
2022/05/10 00:21:42;;;;;;;;;;;;;;;6.81;54.70;99850.53;4798309;29;19926;-76
2022/05/10 00:24:07;;;;;;;;;;;;;;;6.76;54.41;99849.63;4797238;29;19948;-75
2022/05/10 00:26:33;;;;;;;;;;;;;;;7.12;54.23;99849.25;4790808;29;19977;-77
2022/05/10 00:29:00;;;;;;;;;;;;;;;7.16;53.92;99852.75;4796252;29;19917;-76
2022/05/10 00:31:26;;;;;;;;;;;;;;;6.80;56.14;99853.97;4799514;29;20377;-76
2022/05/10 00:33:51;;;;;;;;;;;;;;;6.56;56.30;99850.19;4793236;29;19974;-75
2022/05/10 00:36:16;;;;;;;;;;;;;;;6.07;58.15;99845.97;4793569;29;19986;-76
2022/05/10 00:38:42;;;;;;;;;;;;;;;5.79;59.77;99847.16;4770542;30;19917;-75
2022/05/10 00:41:25;;;;;;;;;;;;;;;5.57;60.54;99849.31;4785730;30;19921;-75
2022/05/10 00:43:52;;;;;;;;;;;;;;;5.55;60.63;99845.88;4799080;29;19929;-76
2022/05/10 00:46:19;;;;;;;;;;;;;;;5.66;60.91;99847.78;4785707;29;20009;-76
2022/05/10 00:48:51;;;;;;;;;;;;;;;5.82;59.16;99839.50;4798192;29;19929;-76
2022/05/10 00:51:22;;;;;;;;;;;;;;;5.90;59.17;99850.78;4794782;29;19920;-76
2022/05/10 00:54:23;;;;;;;;;;;;;;;5.91;58.33;99857.69;4788471;29;19947;-77
2022/05/10 00:57:09;;;;;;;;;;;;;;;6.02;59.14;99851.03;4784619;29;20426;-77
2022/05/10 00:59:50;;;;;;;;;;;;;;;5.79;58.85;99849.72;4792082;29;19973;-76
2022/05/10 01:02:19;;;;;;;;;;;;;;;5.61;59.01;99845.97;4800926;29;20308;-76
2022/05/10 01:04:46;;;;;;;;;;;;;;;5.85;59.34;99845.53;4770254;30;19951;-75
2022/05/10 01:07:14;;;;;;;;;;;;;;;5.66;58.47;99851.22;4803445;29;20024;-77
2022/05/10 01:09:41;;;;;;;;;;;;;;;5.51;58.47;99849.22;4790376;29;19917;-75
2022/05/10 01:12:09;;;;;;;;;;;;;;;5.55;60.16;99848.44;4778111;30;20035;-76
2022/05/10 01:14:44;;;;;;;;;;;;;;;5.54;58.61;99848.41;4781692;29;19917;-75
2022/05/10 01:17:12;;;;;;;;;;;;;;;5.39;59.01;99843.81;4761558;29;19989;-76
2022/05/10 01:19:38;;;;;;;;;;;;;;;5.33;60.34;99841.16;4786625;29;20004;-76
2022/05/10 01:22:22;;;;;;;;;;;;;;;5.50;58.68;99837.19;4796191;29;19948;-76
2022/05/10 01:25:06;;;;;;;;;;;;;;;5.55;58.18;99840.72;4801151;29;20377;-75
2022/05/10 01:27:41;;;;;;;;;;;;;;;5.54;58.26;99838.09;4799529;29;19928;-75
2022/05/10 01:30:13;;;;;;;;;;;;;;;5.58;58.14;99839.91;4793895;29;19920;-77
2022/05/10 01:35:30;;;;;;;;;;;;;;;5.48;57.97;99838.84;4794177;29;19928;-76
2022/05/10 01:37:58;;;;;;;;;;;;;;;5.55;58.33;99842.44;4797225;29;19921;-76
2022/05/10 01:40:23;;;;;;;;;;;;;;;5.56;57.74;99847.59;4801215;29;19936;-76
2022/05/10 01:42:51;;;;;;;;;;;;;;;5.55;58.48;99838.16;4773742;30;19929;-76
2022/05/10 01:45:19;;;;;;;;;;;;;;;5.58;58.41;99835.63;4802538;29;19960;-76
2022/05/10 01:47:49;;;;;;;;;;;;;;;5.80;58.30;99830.88;4806328;29;19921;-76
2022/05/10 01:50:19;;;;;;;;;;;;;;;5.70;56.83;99831.56;4806943;29;19932;-76
2022/05/10 01:52:45;;;;;;;;;;;;;;;5.93;56.52;99832.84;4806507;29;20321;-76
2022/05/10 01:55:28;;;;;;;;;;;;;;;6.12;54.84;99823.72;4807664;29;19921;-76
2022/05/10 01:57:55;;;;;;;;;;;;;;;6.43;53.90;99832.81;4801060;29;19925;-75
2022/05/10 02:00:24;;;;;;;;;;;;;;;6.33;52.87;99821.50;4788083;29;19923;-76
2022/05/10 02:02:57;;;;;;;;;;;;;;;6.52;53.14;99811.47;4788138;29;19931;-75
2022/05/10 02:05:26;;;;;;;;;;;;;;;6.43;52.30;99817.34;4799762;29;20548;-75
2022/05/10 02:07:51;;;;;;;;;;;;;;;6.20;51.91;99822.16;4790078;29;19917;-75
2022/05/10 02:10:19;;;;;;;;;;;;;;;6.48;53.26;99823.44;4800514;29;19993;-75
2022/05/10 02:12:45;;;;;;;;;;;;;;;6.39;50.99;99818.16;4758221;30;19950;-75
2022/05/10 02:15:11;;;;;;;;;;;;;;;6.46;50.97;99809.66;4802429;29;19921;-77
2022/05/10 02:17:56;;;;;;;;;;;;;;;6.40;51.31;99817.28;4800870;29;19943;-76
2022/05/10 02:20:29;;;;;;;;;;;;;;;6.46;50.72;99814.84;4759591;29;20451;-76
2022/05/10 02:23:03;;;;;;;;;;;;;;;6.67;50.63;99813.38;4799337;29;20282;-76
2022/05/10 02:25:32;;;;;;;;;;;;;;;6.94;50.77;99813.75;4800715;29;19921;-75
2022/05/10 02:28:16;;;;;;;;;;;;;;;7.03;50.14;99819.03;4794909;29;19921;-76
2022/05/10 02:30:48;;;;;;;;;;;;;;;7.09;48.37;99819.09;4794179;29;19921;-77
2022/05/10 02:33:13;;;;;;;;;;;;;;;7.04;48.98;99815.59;4787648;30;20191;-76
2022/05/10 02:35:42;;;;;;;;;;;;;;;7.10;49.11;99814.81;4789433;29;19982;-76
2022/05/10 02:38:08;;;;;;;;;;;;;;;7.10;48.97;99815.69;4798770;29;19921;-75
2022/05/10 02:40:33;;;;;;;;;;;;;;;7.03;48.67;99808.72;4801395;29;19924;-76
2022/05/10 02:42:59;;;;;;;;;;;;;;;7.08;49.11;99807.06;4800885;29;20417;-76
2022/05/10 02:45:25;;;;;;;;;;;;;;;7.24;48.30;99807.22;4799268;29;20826;-77
2022/05/10 02:47:51;;;;;;;;;;;;;;;7.52;48.29;99804.13;4793835;29;19927;-77
2022/05/10 02:50:28;;;;;;;;;;;;;;;7.34;45.87;99809.09;4795973;29;19917;-76
2022/05/10 02:52:53;;;;;;;;;;;;;;;6.91;46.62;99807.69;4803150;29;19932;-76
2022/05/10 02:55:22;;;;;;;;;;;;;;;7.04;48.25;99810.44;4799256;29;20374;-75
2022/05/10 02:57:48;;;;;;;;;;;;;;;7.11;47.98;99807.09;4799874;29;20335;-76
2022/05/10 03:00:13;;;;;;;;;;;;;;;7.08;46.49;99799.31;4792039;29;19916;-75
2022/05/10 03:02:40;;;;;;;;;;;;;;;7.23;46.83;99800.34;4788253;29;20023;-75
2022/05/10 03:05:07;;;;;;;;;;;;;;;7.10;46.13;99797.66;4785840;30;19947;-76
2022/05/10 03:07:33;;;;;;;;;;;;;;;7.05;46.67;99801.84;4788553;29;19921;-76
2022/05/10 03:09:58;;;;;;;;;;;;;;;7.05;47.19;99795.81;4799745;29;20386;-75
2022/05/10 03:12:24;;;;;;;;;;;;;;;6.97;46.16;99794.91;4789529;29;19978;-76
2022/05/10 03:14:50;;;;;;;;;;;;;;;7.29;47.00;99800.44;4800080;29;19966;-76
2022/05/10 03:17:16;;;;;;;;;;;;;;;7.30;46.37;99804.75;4793793;29;19921;-76
2022/05/10 03:19:41;;;;;;;;;;;;;;;7.36;44.31;99797.06;4793839;29;20423;-76
2022/05/10 03:22:07;;;;;;;;;;;;;;;7.34;45.30;99803.94;4800740;29;19925;-76
2022/05/10 03:24:33;;;;;;;;;;;;;;;7.24;45.67;99796.91;4797293;29;19917;-75
2022/05/10 03:26:59;;;;;;;;;;;;;;;7.22;45.09;99806.34;4793931;29;20370;-76
2022/05/10 03:29:25;;;;;;;;;;;;;;;7.35;44.66;99796.19;4786863;29;19929;-77
2022/05/10 03:31:51;;;;;;;;;;;;;;;7.46;45.88;99803.19;4787759;29;19929;-78
2022/05/10 03:37:02;;;;;;;;;;;;;;;7.34;42.93;99796.19;4799830;29;19969;-77
2022/05/10 03:39:27;;;;;;;;;;;;;;;7.30;44.55;99803.03;4791431;29;20007;-76
2022/05/10 03:41:53;;;;;;;;;;;;;;;7.29;44.56;99806.47;4786855;30;19932;-75
2022/05/10 03:44:18;;;;;;;;;;;;;;;7.59;44.88;99793.00;4787734;29;19921;-76
2022/05/10 03:46:44;;;;;;;;;;;;;;;7.57;43.21;99792.13;4797343;29;20019;-77
2022/05/10 03:49:10;;;;;;;;;;;;;;;7.33;44.64;99792.75;4792969;29;19979;-75
2022/05/10 03:51:35;;;;;;;;;;;;;;;7.14;43.78;99793.38;4790995;29;19928;-76
2022/05/10 03:54:01;;;;;;;;;;;;;;;7.28;44.87;99788.34;4795631;29;20808;-76
2022/05/10 03:56:26;;;;;;;;;;;;;;;7.55;45.22;99791.22;4799327;29;20407;-75
2022/05/10 03:58:56;;;;;;;;;;;;;;;7.62;43.72;99795.63;4795058;29;19978;-76
2022/05/10 04:01:21;;;;;;;;;;;;;;;7.76;43.51;99793.16;4800216;29;19968;-76
2022/05/10 04:03:47;;;;;;;;;;;;;;;7.61;44.05;99786.16;4793940;29;19928;-77
2022/05/10 04:06:13;;;;;;;;;;;;;;;7.52;42.87;99791.22;4793488;29;19928;-76
2022/05/10 04:08:38;;;;;;;;;;;;;;;7.55;44.36;99780.91;4787341;29;19928;-77
2022/05/10 04:11:04;;;;;;;;;;;;;;;7.40;43.03;99785.91;4787770;29;19925;-76
2022/05/10 04:13:30;;;;;;;;;;;;;;;7.33;43.97;99776.38;4798799;29;19917;-74
2022/05/10 04:15:55;;;;;;;;;;;;;;;7.68;44.78;99786.19;4786134;29;19929;-76
2022/05/10 04:18:21;;;;;;;;;;;;;;;8.01;42.76;99771.00;4799828;29;19966;-76
2022/05/10 04:20:46;;;;;;;;;;;;;;;7.93;42.96;99785.59;4794434;29;19960;-76
2022/05/10 04:23:12;;;;;;;;;;;;;;;8.11;42.92;99770.22;4786310;29;19921;-76
2022/05/10 04:25:37;;;;;;;;;;;;;;;8.41;42.59;99773.91;4799154;29;20012;-76
2022/05/10 04:28:05;;;;;;;;;;;;;;;8.10;42.12;99781.38;4797858;29;20381;-77
2022/05/10 04:30:31;;;;;;;;;;;;;;;8.00;42.11;99782.19;4791747;29;20012;-75
2022/05/10 04:32:56;;;;;;;;;;;;;;;8.03;43.36;99787.38;4795335;29;19937;-76
2022/05/10 04:35:22;;;;;;;;;;;;;;;8.40;42.69;99780.78;4782096;29;20390;-75
2022/05/10 04:37:47;;;;;;;;;;;;;;;8.68;42.27;99777.50;4798893;29;19974;-76
2022/05/10 04:42:57;;;;;;;;;;;;;;;9.01;41.23;99780.25;4799524;29;20399;-77
2022/05/10 04:45:22;;;;;;;;;;;;;;;8.84;40.24;99779.31;4786647;29;19917;-77
2022/05/10 04:47:48;;;;;;;;;;;;;;;8.66;40.69;99777.50;4799929;29;19929;-77
2022/05/10 04:50:13;;;;;;;;;;;;;;;8.76;39.71;99775.84;4794094;29;19978;-76
2022/05/10 04:52:39;;;;;;;;;;;;;;;8.61;40.83;99774.91;4792581;29;19929;-77
2022/05/10 04:55:05;;;;;;;;;;;;;;;8.58;41.18;99772.28;4791220;29;19921;-78
2022/05/10 04:57:34;;;;;;;;;;;;;;;8.62;41.07;99768.88;4803387;29;20108;-76
2022/05/10 04:59:59;;;;;;;;;;;;;;;8.94;40.51;99775.06;4787847;29;19917;-76
2022/05/10 05:02:25;;;;;;;;;;;;;;;9.08;40.18;99766.50;4786987;29;19946;-77
2022/05/10 05:04:50;;;;;;;;;;;;;;;9.08;40.42;99766.50;4799238;29;20015;-77
2022/05/10 05:07:16;;;;;;;;;;;;;;;9.21;40.56;99772.56;4786881;29;19976;-77
2022/05/10 05:09:41;;;;;;;;;;;;;;;9.11;39.61;99763.88;4798146;29;20312;-75
2022/05/10 05:12:07;;;;;;;;;;;;;;;9.19;40.29;99761.34;4793421;29;19928;-76
2022/05/10 05:14:33;;;;;;;;;;;;;;;9.26;39.66;99754.47;4792692;29;20366;-77
2022/05/10 05:16:59;;;;;;;;;;;;;;;9.52;39.91;99749.31;4799807;29;19921;-77
2022/05/10 05:19:24;;;;;;;;;;;;;;;9.24;39.32;99745.81;4796933;29;20430;-76
2022/05/10 05:21:50;;;;;;;;;;;;;;;8.93;39.22;99745.72;4791931;29;19925;-77
2022/05/10 05:24:15;;;;;;;;;;;;;;;8.80;39.28;99741.38;4795983;29;19917;-77
2022/05/10 05:26:41;;;;;;;;;;;;;;;8.69;40.34;99743.88;4787623;29;19925;-76
2022/05/10 05:29:06;;;;;;;;;;;;;;;8.94;40.05;99731.94;4798446;29;19923;-77
2022/05/10 05:31:32;;;;;;;;;;;;;;;8.98;40.08;99741.44;4798727;29;19928;-77
2022/05/10 05:33:58;;;;;;;;;;;;;;;9.00;38.99;99729.38;4792235;29;19939;-77
2022/05/10 05:36:24;;;;;;;;;;;;;;;9.06;39.75;99720.75;4794008;29;19925;-77
2022/05/10 05:38:50;;;;;;;;;;;;;;;8.93;39.35;99724.16;4799394;29;19924;-77
2022/05/10 05:41:17;;;;;;;;;;;;;;;9.02;39.41;99714.69;4795317;29;20361;-75
2022/05/10 05:43:42;;;;;;;;;;;;;;;8.86;39.59;99723.28;4786635;29;19929;-78
2022/05/10 05:46:08;;;;;;;;;;;;;;;9.04;39.32;99718.16;4798608;29;20385;-76
2022/05/10 05:48:33;;;;;;;;;;;;;;;8.86;39.53;99710.34;4797346;29;19921;-78
2022/05/10 05:50:59;;;;;;;;;;;;;;;8.90;40.11;99709.50;4792005;29;19925;-77
2022/05/10 05:53:26;;;;;;;;;;;;;;;8.83;39.93;99708.59;4794225;29;19929;-78
2022/05/10 05:55:53;;;;;;;;;;;;;;;8.96;40.28;99706.06;4789514;29;19960;-79
2022/05/10 05:58:18;;;;;;;;;;;;;;;9.10;39.01;99696.59;4796945;29;19944;-77
2022/05/10 06:00:44;;;;;;;;;;;;;;;9.09;39.56;99697.47;4791881;29;19925;-77
2022/05/10 06:03:09;;;;;;;;;;;;;;;9.33;39.39;99686.31;4792214;29;19921;-77
2022/05/10 06:05:35;;;;;;;;;;;;;;;9.35;39.52;99677.69;4794636;29;19929;-76
2022/05/10 06:08:03;;;;;;;;;;;;;;;9.38;39.85;99681.97;4787479;29;20066;-78
2022/05/10 06:10:29;;;;;;;;;;;;;;;9.77;39.36;99677.69;4798933;29;19925;-75
2022/05/10 06:12:54;;;;;;;;;;;;;;;9.66;39.14;99664.72;4795377;29;19921;-77
2022/05/10 06:15:20;;;;;;;;;;;;;;;9.59;39.00;99674.25;4785905;29;19980;-78
2022/05/10 06:17:49;;;;;;;;;;;;;;;9.59;38.99;99669.06;4801589;29;19917;-77
2022/05/10 06:20:16;;;;;;;;;;;;;;;9.83;38.66;99667.31;4795545;29;19928;-80
2022/05/10 06:22:44;;;;;;;;;;;;;;;9.96;38.70;99663.84;4767665;30;19925;-76
2022/05/10 06:25:10;;;;;;;;;;;;;;;10.08;39.27;99663.84;4802663;29;19929;-78
2022/05/10 06:27:36;;;;;;;;;;;;;;;10.29;37.62;99659.47;4789810;29;19917;-77
2022/05/10 06:30:01;;;;;;;;;;;;;;;10.40;37.41;99658.59;4790248;29;19928;-77
2022/05/10 06:32:27;;;;;;;;;;;;;;;10.66;38.06;99648.09;4800484;29;19917;-77
2022/05/10 06:34:53;;;;;;;;;;;;;;;10.58;37.94;99649.88;4801316;29;20015;-78
2022/05/10 06:40:03;;;;;;;;;;;;;;;10.91;36.55;99640.19;4794278;29;20343;-78
2022/05/10 06:42:29;;;;;;;;;;;;;;;10.84;37.25;99631.56;4802281;29;19943;-77
2022/05/10 06:44:54;;;;;;;;;;;;;;;10.89;36.72;99626.34;4799687;29;20437;-77
2022/05/10 06:47:21;;;;;;;;;;;;;;;10.71;36.22;99631.66;4804215;29;20347;-81
2022/05/10 06:49:47;;;;;;;;;;;;;;;10.97;36.42;99621.13;4789173;29;20393;-77
2022/05/10 06:52:17;;;;;;;;;;;;;;;11.02;36.53;99615.03;4801644;29;19925;-76
2022/05/10 06:54:43;;;;;;;;;;;;;;;10.97;36.20;99616.78;4801544;29;19928;-77
2022/05/10 06:57:08;;;;;;;;;;;;;;;11.10;36.41;99607.19;4787750;29;19921;-79
2022/05/10 06:59:34;;;;;;;;;;;;;;;11.32;35.57;99613.09;4791683;29;20388;-77
2022/05/10 07:01:59;;;;;;;;;;;;;;;11.54;36.70;99614.63;4800428;29;19921;-78
2022/05/10 07:04:25;;;;;;;;;;;;;;;11.62;34.89;99612.81;4794604;29;19928;-77
2022/05/10 07:06:50;;;;;;;;;;;;;;;11.95;32.96;99616.00;4800410;29;19939;-78
2022/05/10 07:09:18;;;;;;;;;;;;;;;12.07;33.96;99609.81;4798808;29;19981;-76
2022/05/10 07:11:43;;;;;;;;;;;;;;;12.50;34.09;99591.09;4793114;29;20011;-77
2022/05/10 07:14:09;;;;;;;;;;;;;;;12.71;33.22;99594.25;4797156;29;20099;-77
2022/05/10 07:16:34;;;;;;;;;;;;;;;12.72;32.03;99595.97;4801542;29;20023;-76
2022/05/10 07:19:00;;;;;;;;;;;;;;;12.90;32.23;99594.00;4796471;29;19944;-77
2022/05/10 07:21:25;;;;;;;;;;;;;;;12.84;30.98;99600.16;4787529;29;19917;-78
2022/05/10 07:23:51;;;;;;;;;;;;;;;12.75;32.97;99586.41;4799339;29;19925;-78
2022/05/10 07:26:16;;;;;;;;;;;;;;;12.00;31.32;99588.19;4798392;29;19916;-77
2022/05/10 07:28:42;;;;;;;;;;;;;;;12.17;32.82;99583.69;4793505;29;20320;-76
2022/05/10 07:31:08;;;;;;;;;;;;;;;12.15;30.16;99582.00;4797053;29;20011;-78
2022/05/10 07:33:33;;;;;;;;;;;;;;;12.00;30.69;99579.53;4800537;29;20039;-77
2022/05/10 07:38:44;;;;;;;;;;;;;;;12.45;32.87;99570.31;4792282;29;19931;-78
2022/05/10 07:41:11;;;;;;;;;;;;;;;12.10;30.50;99561.25;4798244;29;20245;-78
2022/05/10 07:43:37;;;;;;;;;;;;;;;12.14;31.98;99565.53;4800336;29;20025;-77
2022/05/10 07:46:03;;;;;;;;;;;;;;;12.12;32.31;99562.06;4799848;29;20067;-79
2022/05/10 07:48:28;;;;;;;;;;;;;;;12.56;32.64;99565.00;4798672;29;20444;-78
2022/05/10 07:50:55;;;;;;;;;;;;;;;12.34;31.90;99556.63;4787077;29;20079;-78
2022/05/10 07:53:20;;;;;;;;;;;;;;;12.52;29.80;99556.38;4797840;29;20023;-76
2022/05/10 07:55:46;;;;;;;;;;;;;;;12.34;30.45;99564.41;4791095;29;19928;-77
2022/05/10 07:58:11;;;;;;;;;;;;;;;12.41;30.50;99553.03;4795892;29;19925;-79
2022/05/10 08:00:37;;;;;;;;;;;;;;;12.31;30.24;99548.84;4795492;29;20330;-78
2022/05/10 08:03:14;;;;;;;;;;;;;;;12.45;31.42;99541.72;4794586;29;19978;-76
2022/05/10 08:05:40;;;;;;;;;;;;;;;12.68;29.68;99547.44;4793525;29;20023;-77
2022/05/10 08:08:05;;;;;;;;;;;;;;;12.73;30.75;99543.03;4789504;29;20016;-77
2022/05/10 08:10:31;;;;;;;;;;;;;;;12.65;29.84;99542.31;4794730;29;20023;-78
2022/05/10 08:12:57;;;;;;;;;;;;;;;12.76;30.31;99536.06;4791645;29;20004;-78
2022/05/10 08:15:22;;;;;;;;;;;;;;;12.69;29.11;99533.56;4792555;29;20444;-76
2022/05/10 08:17:48;;;;;;;;;;;;;;;12.56;30.51;99545.03;4793599;29;19917;-80
2022/05/10 08:20:16;;;;;;;;;;;;;;;12.79;30.30;99523.03;4801396;29;20393;-80
2022/05/10 08:22:43;;;;;;;;;;;;;;;13.57;28.02;99532.16;4789576;29;19921;-76
2022/05/10 08:25:10;;;;;;;;;;;;;;;13.82;29.11;99540.38;4800182;29;19950;-77
2022/05/10 08:27:35;;;;;;;;;;;;;;;14.09;26.58;99534.59;4794554;29;19917;-76
2022/05/10 08:30:01;;;;;;;;;;;;;;;14.50;28.30;99527.69;4793504;29;19928;-77
2022/05/10 08:32:26;;;;;;;;;;;;;;;14.64;27.58;99523.00;4791545;29;20389;-77
2022/05/10 08:34:52;;;;;;;;;;;;;;;14.56;25.76;99524.94;4794952;29;20374;-77
2022/05/10 08:37:17;;;;;;;;;;;;;;;14.14;27.48;99527.53;4798697;29;19918;-78
2022/05/10 08:39:43;;;;;;;;;;;;;;;13.64;28.46;99524.19;4795696;29;19974;-77
2022/05/10 08:42:32;;;;;;;;;;;;;;;13.72;26.97;99516.22;4791569;29;20015;-79
2022/05/10 08:45:04;;;;;;;;;;;;;;;13.76;28.39;99515.28;4795500;29;19935;-80
2022/05/10 08:47:30;;;;;;;;;;;;;;;13.86;25.31;99515.97;4792155;29;20442;-75
2022/05/10 08:50:05;;;;;;;;;;;;;;;14.03;26.63;99513.88;4798353;29;20053;-79
2022/05/10 08:52:35;;;;;;;;;;;;;;;14.15;26.22;99518.81;4798477;29;19932;-79
2022/05/10 08:55:01;;;;;;;;;;;;;;;14.01;26.66;99505.22;4793408;29;19921;-76
2022/05/10 08:57:26;;;;;;;;;;;;;;;14.40;26.24;99492.22;4793019;29;19928;-77
2022/05/10 08:59:52;;;;;;;;;;;;;;;14.57;26.37;99510.13;4800103;29;20012;-78
2022/05/10 09:02:18;;;;;;;;;;;;;;;14.51;25.83;99498.06;4792532;29;19968;-79
2022/05/10 09:04:44;;;;;;;;;;;;;;;14.39;25.30;99488.75;4800254;29;20155;-80
2022/05/10 09:07:21;;;;;;;;;;;;;;;14.31;24.35;99495.03;4787901;29;20321;-81
2022/05/10 09:09:50;;;;;;;;;;;;;;;13.86;24.78;99469.03;4788238;29;19921;-77
2022/05/10 09:12:19;;;;;;;;;;;;;;;14.45;26.03;99495.59;4785685;29;20389;-78
2022/05/10 09:14:49;;;;;;;;;;;;;;;14.73;24.75;99499.31;4757692;29;19925;-78
2022/05/10 09:17:15;;;;;;;;;;;;;;;15.27;25.54;99490.16;4800199;29;19921;-78
2022/05/10 09:19:42;;;;;;;;;;;;;;;15.90;22.98;99472.78;4786118;29;20002;-79
2022/05/10 09:22:26;;;;;;;;;;;;;;;16.80;23.06;99482.25;4792950;29;19977;-78
2022/05/10 09:24:53;;;;;;;;;;;;;;;16.93;23.36;99473.97;4792533;29;19929;-78
2022/05/10 09:27:24;;;;;;;;;;;;;;;17.11;21.71;99454.13;4798529;29;19940;-77
2022/05/10 09:29:51;;;;;;;;;;;;;;;17.32;23.19;99449.94;4790345;29;19921;-79
2022/05/10 09:35:12;;;;;;;;;;;;;;;16.82;23.24;99444.66;4792852;29;19928;-77
2022/05/10 09:37:47;;;;;;;;;;;;;;;16.59;23.07;99457.59;4791798;29;19925;-76
2022/05/10 09:40:32;;;;;;;;;;;;;;;16.17;23.84;99434.44;4793190;29;20006;-77
2022/05/10 09:43:23;;;;;;;;;;;;;;;16.04;24.05;99447.06;4792922;29;19929;-79
2022/05/10 09:46:07;;;;;;;;;;;;;;;16.27;23.95;99435.91;4792456;29;19921;-77
2022/05/10 09:48:33;;;;;;;;;;;;;;;16.47;22.56;99446.59;4791241;29;19921;-78
2022/05/10 09:50:59;;;;;;;;;;;;;;;16.33;23.57;99437.47;4792342;29;19917;-76
2022/05/10 09:53:25;;;;;;;;;;;;;;;16.23;22.54;99435.13;4794924;29;20329;-78
2022/05/10 09:56:29;;;;;;;;;;;;;;;16.36;25.00;99419.06;4792913;29;20332;-81
2022/05/10 09:59:00;;;;;;;;;;;;;;;16.82;24.68;99422.84;4805175;29;20040;-76
2022/05/10 10:01:38;;;;;;;;;;;;;;;16.80;22.88;99424.63;4802838;29;19930;-78
2022/05/10 10:04:22;;;;;;;;;;;;;;;16.38;23.60;99412.00;4790786;29;19978;-78
2022/05/10 10:07:04;;;;;;;;;;;;;;;15.44;24.07;99411.25;4788842;29;19928;-79
2022/05/10 10:09:30;;;;;;;;;;;;;;;15.39;24.57;99397.47;4792269;29;19921;-77
2022/05/10 10:11:57;;;;;;;;;;;;;;;15.35;23.73;99415.00;4788243;29;20046;-82
2022/05/10 10:14:38;;;;;;;;;;;;;;;15.36;22.55;99416.72;4778544;29;19944;-77
2022/05/10 10:17:04;;;;;;;;;;;;;;;15.72;24.26;99411.41;4790729;29;19932;-79
2022/05/10 10:19:38;;;;;;;;;;;;;;;16.17;24.82;99406.53;4791134;29;20377;-79
2022/05/10 10:22:08;;;;;;;;;;;;;;;15.61;22.82;99395.09;4791125;29;19982;-79
2022/05/10 10:24:36;;;;;;;;;;;;;;;15.61;23.71;99377.66;4790502;29;20019;-78
2022/05/10 10:27:09;;;;;;;;;;;;;;;15.42;22.68;99413.06;4790304;29;19928;-78
2022/05/10 10:29:45;;;;;;;;;;;;;;;15.11;24.05;99403.44;4789631;29;20016;-78
2022/05/10 10:32:25;;;;;;;;;;;;;;;15.23;25.31;99413.56;4789208;29;19975;-78
2022/05/10 10:34:52;;;;;;;;;;;;;;;15.84;24.94;99395.31;4792028;29;20408;-78
2022/05/10 10:37:18;;;;;;;;;;;;;;;15.56;23.77;99397.84;4793228;29;19917;-77
2022/05/10 10:39:52;;;;;;;;;;;;;;;16.01;24.30;99385.22;4791662;29;19921;-77
2022/05/10 10:42:21;;;;;;;;;;;;;;;16.30;22.52;99400.91;4794990;29;20008;-78
2022/05/10 10:44:50;;;;;;;;;;;;;;;16.48;23.66;99392.47;4790085;29;19925;-76
2022/05/10 10:47:19;;;;;;;;;;;;;;;16.11;22.95;99388.41;4766853;29;20286;-78
2022/05/10 10:50:03;;;;;;;;;;;;;;;16.41;22.35;99381.34;4776417;29;20012;-77
2022/05/10 10:52:31;;;;;;;;;;;;;;;16.38;22.77;99377.97;4791113;29;19984;-77
2022/05/10 10:54:56;;;;;;;;;;;;;;;15.84;21.72;99373.53;4792787;29;19921;-77
2022/05/10 10:57:35;;;;;;;;;;;;;;;16.41;23.41;99373.50;4792237;29;19929;-80
2022/05/10 11:00:19;;;;;;;;;;;;;;;16.18;23.51;99369.00;4790886;29;19921;-78
2022/05/10 11:02:47;;;;;;;;;;;;;;;15.83;22.33;99383.16;4786429;29;19936;-78
2022/05/10 11:05:33;;;;;;;;;;;;;;;15.79;23.01;99385.91;4794298;29;19925;-79
2022/05/10 11:08:01;;;;;;;;;;;;;;;15.48;23.35;99381.53;4791486;29;19928;-78
2022/05/10 11:10:26;;;;;;;;;;;;;;;15.46;22.56;99381.56;4791116;29;20259;-78
2022/05/10 11:13:04;;;;;;;;;;;;;;;15.66;23.90;99391.47;4793617;29;20341;-79
2022/05/10 11:15:47;;;;;;;;;;;;;;;15.44;24.03;99372.06;4793292;29;19921;-81
2022/05/10 11:18:42;;;;;;;;;;;;;;;15.82;23.95;99359.66;4791708;29;20278;-79
2022/05/10 11:21:20;;;;;;;;;;;;;;;15.80;24.54;99353.59;4792418;29;19944;-78
2022/05/10 11:23:50;;;;;;;;;;;;;;;15.84;23.93;99336.94;4790961;29;19929;-77
2022/05/10 11:26:34;;;;;;;;;;;;;;;15.78;24.37;99356.28;4789432;29;20405;-76
2022/05/10 11:28:59;;;;;;;;;;;;;;;15.58;22.48;99350.75;4791490;29;19952;-77
2022/05/10 11:31:29;;;;;;;;;;;;;;;15.45;23.23;99350.25;4790789;29;20362;-77
2022/05/10 11:34:03;;;;;;;;;;;;;;;15.62;23.41;99345.38;4794031;29;19955;-77
2022/05/10 11:36:39;;;;;;;;;;;;;;;15.86;22.19;99335.13;4788673;29;19974;-79
2022/05/10 11:39:21;;;;;;;;;;;;;;;16.31;22.52;99343.28;4759054;29;19928;-79
2022/05/10 11:41:49;;;;;;;;;;;;;;;17.04;21.08;99337.31;4793448;29;20385;-77
2022/05/10 11:44:21;;;;;;;;;;;;;;;16.24;21.07;99342.63;4793435;29;19926;-78
2022/05/10 11:46:57;;;;;;;;;;;;;;;16.32;21.45;99357.22;4788074;29;20444;-78
2022/05/10 11:49:23;;;;;;;;;;;;;;;16.09;21.73;99361.44;4790644;29;20016;-77
2022/05/10 11:51:52;;;;;;;;;;;;;;;15.98;21.14;99361.75;4792481;29;20362;-79
2022/05/10 11:54:18;;;;;;;;;;;;;;;15.73;22.07;99355.56;4789209;29;19921;-80
2022/05/10 11:56:44;;;;;;;;;;;;;;;15.56;22.28;99336.88;4789679;29;20385;-78
2022/05/10 11:59:23;;;;;;;;;;;;;;;15.59;23.00;99347.25;4789478;29;19921;-78
2022/05/10 12:01:53;;;;;;;;;;;;;;;15.51;23.44;99340.47;4791893;29;19937;-77
2022/05/10 12:04:37;;;;;;;;;;;;;;;15.55;21.81;99349.09;4787850;29;19926;-75
2022/05/10 12:07:18;;;;;;;;;;;;;;;15.77;21.75;99335.41;4790930;29;19928;-78
2022/05/10 12:09:53;;;;;;;;;;;;;;;15.62;23.38;99347.13;4795574;29;19929;-79
2022/05/10 12:12:31;;;;;;;;;;;;;;;15.03;21.43;99344.47;4791925;29;19921;-82
2022/05/10 12:23:16;;;;;;;;;;;;;;;15.06;24.31;99336.56;4787706;29;19965;-77
2022/05/10 12:25:44;;;;;;;;;;;;;;;14.89;24.07;99335.28;4787744;29;19991;-78
2022/05/10 12:28:09;;;;;;;;;;;;;;;15.09;24.34;99345.16;4787472;29;19922;-79
2022/05/10 12:30:35;;;;;;;;;;;;;;;15.32;24.22;99333.22;4790974;29;20391;-79
2022/05/10 12:33:20;;;;;;;;;;;;;;;15.21;24.15;99339.63;4783586;29;19927;-78
2022/05/10 12:36:05;;;;;;;;;;;;;;;15.06;23.14;99340.00;4796723;29;19928;-80
2022/05/10 12:38:47;;;;;;;;;;;;;;;15.36;24.38;99329.63;4790528;29;19928;-77
2022/05/10 12:41:40;;;;;;;;;;;;;;;14.87;23.15;99326.59;4790617;29;19921;-77
2022/05/10 12:44:10;;;;;;;;;;;;;;;15.40;24.45;99328.63;4797268;29;19925;-78
2022/05/10 12:46:51;;;;;;;;;;;;;;;16.00;24.19;99328.56;4786588;29;19926;-78
2022/05/10 12:49:20;;;;;;;;;;;;;;;16.11;24.10;99325.59;4782625;29;19971;-78
2022/05/10 12:51:52;;;;;;;;;;;;;;;16.23;24.00;99319.97;4791485;29;19973;-78
2022/05/10 12:54:21;;;;;;;;;;;;;;;16.02;22.81;99312.81;4787082;29;20397;-78
2022/05/10 12:57:06;;;;;;;;;;;;;;;15.41;23.15;99310.28;4789745;29;19928;-76
2022/05/10 12:59:37;;;;;;;;;;;;;;;15.20;24.37;99316.13;4802534;29;20015;-78
2022/05/10 13:02:03;;;;;;;;;;;;;;;15.22;24.18;99323.03;4788378;29;19981;-78
2022/05/10 13:04:32;;;;;;;;;;;;;;;15.38;23.35;99318.19;4790664;29;19928;-80
2022/05/10 13:07:08;;;;;;;;;;;;;;;15.58;23.99;99307.19;4773421;29;19932;-78
2022/05/10 13:09:33;;;;;;;;;;;;;;;16.11;23.67;99309.91;4789138;29;19921;-79
2022/05/10 13:12:03;;;;;;;;;;;;;;;16.00;22.17;99301.53;4788745;29;19940;-79
2022/05/10 13:14:29;;;;;;;;;;;;;;;16.38;22.56;99286.34;4792359;29;20011;-78
2022/05/10 13:16:54;;;;;;;;;;;;;;;16.50;23.16;99288.56;4773865;29;20023;-77
2022/05/10 13:19:21;;;;;;;;;;;;;;;16.29;23.41;99303.22;4787051;29;19921;-79
2022/05/10 13:21:46;;;;;;;;;;;;;;;16.18;22.15;99300.94;4791616;29;19918;-80
2022/05/10 13:24:13;;;;;;;;;;;;;;;15.98;22.99;99287.63;4790856;29;19933;-77
2022/05/10 13:26:58;;;;;;;;;;;;;;;16.07;23.79;99292.56;4791613;29;19921;-78
2022/05/10 13:29:35;;;;;;;;;;;;;;;16.12;23.08;99289.81;4790715;29;20406;-77